sensor_id;sensor_type;location;lat;lon;timestamp;P1;durP1;ratioP1;P2;durP2;ratioP2
75261;SDS011;63859;51.064;4.580;2024-03-02T00:02:14;0.90;;;0.90;;
75261;SDS011;63859;51.064;4.580;2024-03-02T00:04:40;2.17;;;1.03;;
75261;SDS011;63859;51.064;4.580;2024-03-02T00:07:09;1.03;;;0.90;;
75261;SDS011;63859;51.064;4.580;2024-03-02T00:09:34;2.77;;;0.83;;
75261;SDS011;63859;51.064;4.580;2024-03-02T00:12:01;0.87;;;0.80;;
75261;SDS011;63859;51.064;4.580;2024-03-02T00:14:29;0.90;;;0.90;;
75261;SDS011;63859;51.064;4.580;2024-03-02T00:16:55;1.77;;;1.10;;
75261;SDS011;63859;51.064;4.580;2024-03-02T00:19:21;1.10;;;1.00;;
75261;SDS011;63859;51.064;4.580;2024-03-02T00:21:47;1.00;;;1.00;;
75261;SDS011;63859;51.064;4.580;2024-03-02T00:24:32;1.10;;;1.00;;
75261;SDS011;63859;51.064;4.580;2024-03-02T00:26:59;1.03;;;1.03;;
75261;SDS011;63859;51.064;4.580;2024-03-02T00:29:25;1.00;;;0.93;;
75261;SDS011;63859;51.064;4.580;2024-03-02T00:31:52;1.07;;;0.90;;
75261;SDS011;63859;51.064;4.580;2024-03-02T00:34:18;1.47;;;1.00;;
75261;SDS011;63859;51.064;4.580;2024-03-02T00:36:44;1.13;;;1.00;;
75261;SDS011;63859;51.064;4.580;2024-03-02T00:39:11;1.13;;;0.90;;
75261;SDS011;63859;51.064;4.580;2024-03-02T00:41:40;1.43;;;0.93;;
75261;SDS011;63859;51.064;4.580;2024-03-02T00:44:11;0.80;;;0.80;;
75261;SDS011;63859;51.064;4.580;2024-03-02T00:46:38;1.10;;;1.00;;
75261;SDS011;63859;51.064;4.580;2024-03-02T00:49:24;1.10;;;1.07;;
75261;SDS011;63859;51.064;4.580;2024-03-02T00:51:51;1.90;;;1.00;;
75261;SDS011;63859;51.064;4.580;2024-03-02T00:54:22;0.67;;;0.67;;
75261;SDS011;63859;51.064;4.580;2024-03-02T00:56:49;1.03;;;0.90;;
75261;SDS011;63859;51.064;4.580;2024-03-02T00:59:15;1.50;;;0.90;;
75261;SDS011;63859;51.064;4.580;2024-03-02T01:01:41;0.90;;;0.90;;
75261;SDS011;63859;51.064;4.580;2024-03-02T01:04:08;0.73;;;0.73;;
75261;SDS011;63859;51.064;4.580;2024-03-02T01:06:34;1.43;;;0.70;;
75261;SDS011;63859;51.064;4.580;2024-03-02T01:09:00;0.60;;;0.60;;
75261;SDS011;63859;51.064;4.580;2024-03-02T01:11:27;0.80;;;0.80;;
75261;SDS011;63859;51.064;4.580;2024-03-02T01:13:53;1.23;;;0.97;;
75261;SDS011;63859;51.064;4.580;2024-03-02T01:16:19;3.90;;;0.93;;
75261;SDS011;63859;51.064;4.580;2024-03-02T01:18:44;0.90;;;0.87;;
75261;SDS011;63859;51.064;4.580;2024-03-02T01:21:10;1.00;;;0.90;;
75261;SDS011;63859;51.064;4.580;2024-03-02T01:23:36;1.37;;;0.90;;
75261;SDS011;63859;51.064;4.580;2024-03-02T01:26:02;2.10;;;0.90;;
75261;SDS011;63859;51.064;4.580;2024-03-02T01:28:28;1.93;;;1.10;;
75261;SDS011;63859;51.064;4.580;2024-03-02T01:30:54;0.97;;;0.80;;
75261;SDS011;63859;51.064;4.580;2024-03-02T01:33:20;0.80;;;0.80;;
75261;SDS011;63859;51.064;4.580;2024-03-02T01:35:46;1.10;;;0.80;;
75261;SDS011;63859;51.064;4.580;2024-03-02T01:38:12;1.20;;;0.80;;
75261;SDS011;63859;51.064;4.580;2024-03-02T01:40:38;1.30;;;0.70;;
75261;SDS011;63859;51.064;4.580;2024-03-02T01:43:04;1.40;;;0.83;;
75261;SDS011;63859;51.064;4.580;2024-03-02T01:45:31;0.73;;;0.73;;
75261;SDS011;63859;51.064;4.580;2024-03-02T01:47:57;0.70;;;0.70;;
75261;SDS011;63859;51.064;4.580;2024-03-02T01:50:26;0.80;;;0.80;;
75261;SDS011;63859;51.064;4.580;2024-03-02T01:52:53;1.03;;;0.90;;
75261;SDS011;63859;51.064;4.580;2024-03-02T01:55:20;1.00;;;0.80;;
75261;SDS011;63859;51.064;4.580;2024-03-02T01:57:46;0.87;;;0.70;;
75261;SDS011;63859;51.064;4.580;2024-03-02T02:00:13;1.83;;;1.00;;
75261;SDS011;63859;51.064;4.580;2024-03-02T02:02:40;1.07;;;0.93;;
75261;SDS011;63859;51.064;4.580;2024-03-02T02:05:05;1.27;;;0.80;;
75261;SDS011;63859;51.064;4.580;2024-03-02T02:07:31;0.83;;;0.83;;
75261;SDS011;63859;51.064;4.580;2024-03-02T02:09:58;1.13;;;0.93;;
75261;SDS011;63859;51.064;4.580;2024-03-02T02:12:23;1.17;;;1.10;;
75261;SDS011;63859;51.064;4.580;2024-03-02T02:14:49;6.60;;;1.07;;
75261;SDS011;63859;51.064;4.580;2024-03-02T02:17:15;1.23;;;0.80;;
75261;SDS011;63859;51.064;4.580;2024-03-02T02:19:41;1.13;;;0.90;;
75261;SDS011;63859;51.064;4.580;2024-03-02T02:22:08;2.00;;;0.70;;
75261;SDS011;63859;51.064;4.580;2024-03-02T02:24:34;1.20;;;1.10;;
75261;SDS011;63859;51.064;4.580;2024-03-02T02:27:00;2.10;;;1.13;;
75261;SDS011;63859;51.064;4.580;2024-03-02T02:29:26;3.97;;;1.10;;
75261;SDS011;63859;51.064;4.580;2024-03-02T02:31:52;2.00;;;1.60;;
75261;SDS011;63859;51.064;4.580;2024-03-02T02:34:17;1.53;;;1.10;;
75261;SDS011;63859;51.064;4.580;2024-03-02T02:36:43;1.60;;;1.03;;
75261;SDS011;63859;51.064;4.580;2024-03-02T02:39:10;3.03;;;1.00;;
75261;SDS011;63859;51.064;4.580;2024-03-02T02:41:38;1.47;;;1.10;;
75261;SDS011;63859;51.064;4.580;2024-03-02T02:44:04;1.80;;;1.10;;
75261;SDS011;63859;51.064;4.580;2024-03-02T02:46:30;3.07;;;1.10;;
75261;SDS011;63859;51.064;4.580;2024-03-02T02:48:56;3.13;;;1.10;;
75261;SDS011;63859;51.064;4.580;2024-03-02T02:51:22;2.43;;;1.10;;
75261;SDS011;63859;51.064;4.580;2024-03-02T02:53:48;2.07;;;0.80;;
75261;SDS011;63859;51.064;4.580;2024-03-02T02:56:14;1.07;;;0.90;;
75261;SDS011;63859;51.064;4.580;2024-03-02T02:58:40;2.10;;;1.10;;
75261;SDS011;63859;51.064;4.580;2024-03-02T03:01:06;2.07;;;0.90;;
75261;SDS011;63859;51.064;4.580;2024-03-02T03:03:32;2.33;;;1.20;;
75261;SDS011;63859;51.064;4.580;2024-03-02T03:05:58;1.43;;;0.80;;
75261;SDS011;63859;51.064;4.580;2024-03-02T03:08:24;3.63;;;1.00;;
75261;SDS011;63859;51.064;4.580;2024-03-02T03:10:50;3.93;;;1.23;;
75261;SDS011;63859;51.064;4.580;2024-03-02T03:13:15;3.33;;;1.00;;
75261;SDS011;63859;51.064;4.580;2024-03-02T03:15:41;4.40;;;1.13;;
75261;SDS011;63859;51.064;4.580;2024-03-02T03:18:07;3.63;;;1.20;;
75261;SDS011;63859;51.064;4.580;2024-03-02T03:20:32;2.57;;;1.20;;
75261;SDS011;63859;51.064;4.580;2024-03-02T03:22:59;2.83;;;1.07;;
75261;SDS011;63859;51.064;4.580;2024-03-02T03:25:24;3.07;;;0.90;;
75261;SDS011;63859;51.064;4.580;2024-03-02T03:27:50;3.27;;;1.10;;
75261;SDS011;63859;51.064;4.580;2024-03-02T03:30:19;2.67;;;1.27;;
75261;SDS011;63859;51.064;4.580;2024-03-02T03:32:45;4.30;;;1.00;;
75261;SDS011;63859;51.064;4.580;2024-03-02T03:35:10;4.73;;;1.40;;
75261;SDS011;63859;51.064;4.580;2024-03-02T03:37:38;1.00;;;1.00;;
75261;SDS011;63859;51.064;4.580;2024-03-02T03:40:03;2.77;;;1.13;;
75261;SDS011;63859;51.064;4.580;2024-03-02T03:42:35;1.80;;;1.00;;
75261;SDS011;63859;51.064;4.580;2024-03-02T03:45:01;1.63;;;1.10;;
75261;SDS011;63859;51.064;4.580;2024-03-02T03:47:27;2.60;;;1.17;;
75261;SDS011;63859;51.064;4.580;2024-03-02T03:49:53;2.77;;;1.30;;
75261;SDS011;63859;51.064;4.580;2024-03-02T03:52:19;5.73;;;1.10;;
75261;SDS011;63859;51.064;4.580;2024-03-02T03:54:44;5.47;;;1.30;;
75261;SDS011;63859;51.064;4.580;2024-03-02T03:57:10;1.27;;;0.90;;
75261;SDS011;63859;51.064;4.580;2024-03-02T03:59:36;2.47;;;1.30;;
75261;SDS011;63859;51.064;4.580;2024-03-02T04:02:04;4.00;;;1.77;;
75261;SDS011;63859;51.064;4.580;2024-03-02T04:04:30;2.77;;;1.83;;
75261;SDS011;63859;51.064;4.580;2024-03-02T04:06:55;5.20;;;2.00;;
75261;SDS011;63859;51.064;4.580;2024-03-02T04:09:21;2.33;;;1.67;;
75261;SDS011;63859;51.064;4.580;2024-03-02T04:11:47;1.70;;;1.40;;
75261;SDS011;63859;51.064;4.580;2024-03-02T04:14:12;4.20;;;1.40;;
75261;SDS011;63859;51.064;4.580;2024-03-02T04:16:38;6.13;;;1.50;;
75261;SDS011;63859;51.064;4.580;2024-03-02T04:19:04;4.83;;;1.37;;
75261;SDS011;63859;51.064;4.580;2024-03-02T04:21:30;5.30;;;1.20;;
75261;SDS011;63859;51.064;4.580;2024-03-02T04:23:56;6.23;;;2.13;;
75261;SDS011;63859;51.064;4.580;2024-03-02T04:26:27;2.13;;;1.23;;
75261;SDS011;63859;51.064;4.580;2024-03-02T04:28:53;2.80;;;1.30;;
75261;SDS011;63859;51.064;4.580;2024-03-02T04:31:19;3.03;;;1.57;;
75261;SDS011;63859;51.064;4.580;2024-03-02T04:33:45;2.73;;;1.40;;
75261;SDS011;63859;51.064;4.580;2024-03-02T04:36:11;3.50;;;1.20;;
75261;SDS011;63859;51.064;4.580;2024-03-02T04:38:37;3.60;;;2.13;;
75261;SDS011;63859;51.064;4.580;2024-03-02T04:41:03;3.37;;;1.20;;
75261;SDS011;63859;51.064;4.580;2024-03-02T04:43:31;2.83;;;1.80;;
75261;SDS011;63859;51.064;4.580;2024-03-02T04:45:57;3.67;;;1.70;;
75261;SDS011;63859;51.064;4.580;2024-03-02T04:48:24;3.50;;;1.50;;
75261;SDS011;63859;51.064;4.580;2024-03-02T04:50:49;6.20;;;1.30;;
75261;SDS011;63859;51.064;4.580;2024-03-02T04:53:15;1.80;;;1.20;;
75261;SDS011;63859;51.064;4.580;2024-03-02T04:55:41;2.60;;;1.30;;
75261;SDS011;63859;51.064;4.580;2024-03-02T04:58:07;1.10;;;1.10;;
75261;SDS011;63859;51.064;4.580;2024-03-02T05:00:33;3.03;;;1.30;;
75261;SDS011;63859;51.064;4.580;2024-03-02T05:02:59;1.60;;;1.20;;
75261;SDS011;63859;51.064;4.580;2024-03-02T05:05:25;3.63;;;1.00;;
75261;SDS011;63859;51.064;4.580;2024-03-02T05:07:51;2.13;;;1.00;;
75261;SDS011;63859;51.064;4.580;2024-03-02T05:10:17;1.90;;;1.10;;
75261;SDS011;63859;51.064;4.580;2024-03-02T05:12:42;1.40;;;1.20;;
75261;SDS011;63859;51.064;4.580;2024-03-02T05:15:12;4.03;;;1.40;;
75261;SDS011;63859;51.064;4.580;2024-03-02T05:17:39;2.13;;;1.30;;
75261;SDS011;63859;51.064;4.580;2024-03-02T05:20:07;3.03;;;1.33;;
75261;SDS011;63859;51.064;4.580;2024-03-02T05:22:33;3.50;;;1.63;;
75261;SDS011;63859;51.064;4.580;2024-03-02T05:25:00;8.73;;;2.00;;
75261;SDS011;63859;51.064;4.580;2024-03-02T05:27:29;5.23;;;1.60;;
75261;SDS011;63859;51.064;4.580;2024-03-02T05:29:55;2.93;;;1.40;;
75261;SDS011;63859;51.064;4.580;2024-03-02T05:32:21;1.87;;;1.50;;
75261;SDS011;63859;51.064;4.580;2024-03-02T05:34:47;1.90;;;1.47;;
75261;SDS011;63859;51.064;4.580;2024-03-02T05:37:13;4.37;;;1.60;;
75261;SDS011;63859;51.064;4.580;2024-03-02T05:39:38;2.07;;;1.73;;
75261;SDS011;63859;51.064;4.580;2024-03-02T05:42:04;2.03;;;1.57;;
75261;SDS011;63859;51.064;4.580;2024-03-02T05:44:30;1.70;;;1.30;;
75261;SDS011;63859;51.064;4.580;2024-03-02T05:46:55;4.00;;;1.80;;
75261;SDS011;63859;51.064;4.580;2024-03-02T05:49:21;4.03;;;1.50;;
75261;SDS011;63859;51.064;4.580;2024-03-02T05:51:47;4.73;;;1.47;;
75261;SDS011;63859;51.064;4.580;2024-03-02T05:54:13;2.40;;;1.60;;
75261;SDS011;63859;51.064;4.580;2024-03-02T05:56:38;2.13;;;1.40;;
75261;SDS011;63859;51.064;4.580;2024-03-02T05:59:04;3.17;;;1.20;;
75261;SDS011;63859;51.064;4.580;2024-03-02T06:01:37;7.17;;;1.73;;
75261;SDS011;63859;51.064;4.580;2024-03-02T06:04:04;3.60;;;1.50;;
75261;SDS011;63859;51.064;4.580;2024-03-02T06:06:30;1.63;;;1.40;;
75261;SDS011;63859;51.064;4.580;2024-03-02T06:08:57;2.73;;;1.50;;
75261;SDS011;63859;51.064;4.580;2024-03-02T06:11:23;4.03;;;1.50;;
75261;SDS011;63859;51.064;4.580;2024-03-02T06:13:49;5.13;;;1.50;;
75261;SDS011;63859;51.064;4.580;2024-03-02T06:16:15;3.67;;;1.70;;
75261;SDS011;63859;51.064;4.580;2024-03-02T06:18:41;7.00;;;1.90;;
75261;SDS011;63859;51.064;4.580;2024-03-02T06:21:06;2.30;;;1.57;;
75261;SDS011;63859;51.064;4.580;2024-03-02T06:23:33;3.63;;;1.40;;
75261;SDS011;63859;51.064;4.580;2024-03-02T06:25:59;5.97;;;1.60;;
75261;SDS011;63859;51.064;4.580;2024-03-02T06:28:25;4.03;;;1.40;;
75261;SDS011;63859;51.064;4.580;2024-03-02T06:30:51;5.40;;;1.80;;
75261;SDS011;63859;51.064;4.580;2024-03-02T06:33:17;3.13;;;1.60;;
75261;SDS011;63859;51.064;4.580;2024-03-02T06:35:42;3.53;;;1.40;;
75261;SDS011;63859;51.064;4.580;2024-03-02T06:38:08;3.03;;;1.60;;
75261;SDS011;63859;51.064;4.580;2024-03-02T06:40:34;4.53;;;1.50;;
75261;SDS011;63859;51.064;4.580;2024-03-02T06:42:59;5.40;;;1.53;;
75261;SDS011;63859;51.064;4.580;2024-03-02T06:45:25;2.53;;;1.40;;
75261;SDS011;63859;51.064;4.580;2024-03-02T06:47:51;9.00;;;1.73;;
75261;SDS011;63859;51.064;4.580;2024-03-02T06:50:17;8.33;;;1.50;;
75261;SDS011;63859;51.064;4.580;2024-03-02T06:52:42;5.80;;;1.60;;
75261;SDS011;63859;51.064;4.580;2024-03-02T06:55:09;1.57;;;1.17;;
75261;SDS011;63859;51.064;4.580;2024-03-02T06:57:34;4.77;;;1.47;;
75261;SDS011;63859;51.064;4.580;2024-03-02T07:00:00;6.23;;;1.40;;
75261;SDS011;63859;51.064;4.580;2024-03-02T07:02:26;4.63;;;1.37;;
75261;SDS011;63859;51.064;4.580;2024-03-02T07:04:52;6.10;;;1.40;;
75261;SDS011;63859;51.064;4.580;2024-03-02T07:07:19;3.27;;;1.20;;
75261;SDS011;63859;51.064;4.580;2024-03-02T07:09:45;3.53;;;1.40;;
75261;SDS011;63859;51.064;4.580;2024-03-02T07:12:11;9.07;;;1.60;;
75261;SDS011;63859;51.064;4.580;2024-03-02T07:14:36;5.90;;;1.70;;
75261;SDS011;63859;51.064;4.580;2024-03-02T07:17:36;7.33;;;1.47;;
75261;SDS011;63859;51.064;4.580;2024-03-02T07:20:02;3.77;;;1.70;;
75261;SDS011;63859;51.064;4.580;2024-03-02T07:22:29;5.60;;;1.70;;
75261;SDS011;63859;51.064;4.580;2024-03-02T07:24:54;7.40;;;1.70;;
75261;SDS011;63859;51.064;4.580;2024-03-02T07:27:20;6.77;;;1.50;;
75261;SDS011;63859;51.064;4.580;2024-03-02T07:29:46;9.80;;;1.47;;
75261;SDS011;63859;51.064;4.580;2024-03-02T07:32:12;5.37;;;1.87;;
75261;SDS011;63859;51.064;4.580;2024-03-02T07:34:38;5.17;;;1.57;;
75261;SDS011;63859;51.064;4.580;2024-03-02T07:37:03;5.87;;;1.57;;
75261;SDS011;63859;51.064;4.580;2024-03-02T07:39:29;6.60;;;1.70;;
75261;SDS011;63859;51.064;4.580;2024-03-02T07:41:55;3.77;;;1.70;;
75261;SDS011;63859;51.064;4.580;2024-03-02T07:44:21;6.80;;;2.17;;
75261;SDS011;63859;51.064;4.580;2024-03-02T07:46:48;4.40;;;1.60;;
75261;SDS011;63859;51.064;4.580;2024-03-02T07:49:20;4.97;;;1.80;;
75261;SDS011;63859;51.064;4.580;2024-03-02T07:51:46;5.67;;;1.70;;
75261;SDS011;63859;51.064;4.580;2024-03-02T07:54:11;3.50;;;1.50;;
75261;SDS011;63859;51.064;4.580;2024-03-02T07:56:37;8.07;;;1.80;;
75261;SDS011;63859;51.064;4.580;2024-03-02T07:59:03;8.07;;;1.77;;
75261;SDS011;63859;51.064;4.580;2024-03-02T08:01:32;7.63;;;1.90;;
75261;SDS011;63859;51.064;4.580;2024-03-02T08:03:58;6.47;;;2.00;;
75261;SDS011;63859;51.064;4.580;2024-03-02T08:06:26;6.40;;;1.93;;
75261;SDS011;63859;51.064;4.580;2024-03-02T08:08:59;8.10;;;2.00;;
75261;SDS011;63859;51.064;4.580;2024-03-02T08:11:26;5.23;;;1.70;;
75261;SDS011;63859;51.064;4.580;2024-03-02T08:13:52;9.07;;;2.03;;
75261;SDS011;63859;51.064;4.580;2024-03-02T08:16:19;6.13;;;1.60;;
75261;SDS011;63859;51.064;4.580;2024-03-02T08:18:47;3.50;;;1.70;;
75261;SDS011;63859;51.064;4.580;2024-03-02T08:21:14;2.93;;;1.50;;
75261;SDS011;63859;51.064;4.580;2024-03-02T08:23:40;4.77;;;1.80;;
75261;SDS011;63859;51.064;4.580;2024-03-02T08:26:07;7.63;;;1.97;;
75261;SDS011;63859;51.064;4.580;2024-03-02T08:28:33;3.67;;;2.00;;
75261;SDS011;63859;51.064;4.580;2024-03-02T08:30:59;7.10;;;1.50;;
75261;SDS011;63859;51.064;4.580;2024-03-02T08:33:25;5.97;;;1.60;;
75261;SDS011;63859;51.064;4.580;2024-03-02T08:35:51;7.53;;;1.93;;
75261;SDS011;63859;51.064;4.580;2024-03-02T08:38:16;8.57;;;1.67;;
75261;SDS011;63859;51.064;4.580;2024-03-02T08:40:42;4.17;;;1.30;;
75261;SDS011;63859;51.064;4.580;2024-03-02T08:43:09;9.77;;;1.63;;
75261;SDS011;63859;51.064;4.580;2024-03-02T08:45:35;4.50;;;1.57;;
75261;SDS011;63859;51.064;4.580;2024-03-02T08:48:01;12.47;;;3.20;;
75261;SDS011;63859;51.064;4.580;2024-03-02T08:50:26;3.70;;;1.90;;
75261;SDS011;63859;51.064;4.580;2024-03-02T08:52:52;6.10;;;1.43;;
75261;SDS011;63859;51.064;4.580;2024-03-02T08:55:17;7.97;;;1.80;;
75261;SDS011;63859;51.064;4.580;2024-03-02T08:57:43;5.13;;;1.30;;
75261;SDS011;63859;51.064;4.580;2024-03-02T09:00:09;5.27;;;1.60;;
75261;SDS011;63859;51.064;4.580;2024-03-02T09:02:35;4.57;;;1.40;;
75261;SDS011;63859;51.064;4.580;2024-03-02T09:05:01;4.53;;;1.40;;
75261;SDS011;63859;51.064;4.580;2024-03-02T09:07:27;6.27;;;1.50;;
75261;SDS011;63859;51.064;4.580;2024-03-02T09:09:52;13.00;;;1.80;;
75261;SDS011;63859;51.064;4.580;2024-03-02T09:12:18;5.57;;;1.73;;
75261;SDS011;63859;51.064;4.580;2024-03-02T09:14:45;5.97;;;1.60;;
75261;SDS011;63859;51.064;4.580;2024-03-02T09:17:11;4.93;;;1.53;;
75261;SDS011;63859;51.064;4.580;2024-03-02T09:19:37;4.53;;;1.30;;
75261;SDS011;63859;51.064;4.580;2024-03-02T09:22:04;8.20;;;1.83;;
75261;SDS011;63859;51.064;4.580;2024-03-02T09:24:30;5.67;;;1.40;;
75261;SDS011;63859;51.064;4.580;2024-03-02T09:26:58;9.93;;;1.93;;
75261;SDS011;63859;51.064;4.580;2024-03-02T09:29:23;6.23;;;1.60;;
75261;SDS011;63859;51.064;4.580;2024-03-02T09:31:49;8.13;;;1.57;;
75261;SDS011;63859;51.064;4.580;2024-03-02T09:34:16;9.33;;;2.00;;
75261;SDS011;63859;51.064;4.580;2024-03-02T09:36:42;9.07;;;1.50;;
75261;SDS011;63859;51.064;4.580;2024-03-02T09:39:08;12.17;;;1.93;;
75261;SDS011;63859;51.064;4.580;2024-03-02T09:41:34;7.30;;;1.80;;
75261;SDS011;63859;51.064;4.580;2024-03-02T09:44:04;5.33;;;1.60;;
75261;SDS011;63859;51.064;4.580;2024-03-02T09:46:30;10.23;;;2.00;;
75261;SDS011;63859;51.064;4.580;2024-03-02T09:48:56;9.37;;;1.60;;
75261;SDS011;63859;51.064;4.580;2024-03-02T09:51:22;8.87;;;2.40;;
75261;SDS011;63859;51.064;4.580;2024-03-02T09:53:48;11.80;;;2.20;;
75261;SDS011;63859;51.064;4.580;2024-03-02T09:56:15;3.73;;;1.27;;
75261;SDS011;63859;51.064;4.580;2024-03-02T09:58:41;7.03;;;1.90;;
75261;SDS011;63859;51.064;4.580;2024-03-02T10:01:07;19.07;;;2.77;;
75261;SDS011;63859;51.064;4.580;2024-03-02T10:03:35;9.73;;;1.63;;
75261;SDS011;63859;51.064;4.580;2024-03-02T10:08:52;9.27;;;1.87;;
75261;SDS011;63859;51.064;4.580;2024-03-02T10:14:11;8.67;;;2.10;;
75261;SDS011;63859;51.064;4.580;2024-03-02T10:16:39;6.03;;;1.70;;
75261;SDS011;63859;51.064;4.580;2024-03-02T10:19:15;4.47;;;1.80;;
75261;SDS011;63859;51.064;4.580;2024-03-02T10:21:42;9.90;;;2.00;;
75261;SDS011;63859;51.064;4.580;2024-03-02T10:24:08;4.53;;;1.50;;
75261;SDS011;63859;51.064;4.580;2024-03-02T10:26:33;10.17;;;2.00;;
75261;SDS011;63859;51.064;4.580;2024-03-02T10:28:59;8.10;;;1.90;;
75261;SDS011;63859;51.064;4.580;2024-03-02T10:31:25;6.50;;;1.77;;
75261;SDS011;63859;51.064;4.580;2024-03-02T10:33:56;7.17;;;1.83;;
75261;SDS011;63859;51.064;4.580;2024-03-02T10:36:22;8.50;;;2.10;;
75261;SDS011;63859;51.064;4.580;2024-03-02T10:38:50;8.60;;;1.60;;
75261;SDS011;63859;51.064;4.580;2024-03-02T10:41:20;6.07;;;1.37;;
75261;SDS011;63859;51.064;4.580;2024-03-02T10:43:49;3.97;;;1.30;;
75261;SDS011;63859;51.064;4.580;2024-03-02T10:46:20;7.70;;;2.03;;
75261;SDS011;63859;51.064;4.580;2024-03-02T10:48:47;7.00;;;1.67;;
75261;SDS011;63859;51.064;4.580;2024-03-02T10:51:14;6.90;;;2.20;;
75261;SDS011;63859;51.064;4.580;2024-03-02T10:53:40;8.93;;;2.00;;
75261;SDS011;63859;51.064;4.580;2024-03-02T10:56:07;4.97;;;1.73;;
75261;SDS011;63859;51.064;4.580;2024-03-02T10:58:34;3.67;;;1.63;;
75261;SDS011;63859;51.064;4.580;2024-03-02T11:01:04;5.40;;;1.73;;
75261;SDS011;63859;51.064;4.580;2024-03-02T11:03:33;6.00;;;1.52;;
75261;SDS011;63859;51.064;4.580;2024-03-02T11:06:03;6.10;;;1.40;;
75261;SDS011;63859;51.064;4.580;2024-03-02T11:08:32;4.50;;;1.80;;
75261;SDS011;63859;51.064;4.580;2024-03-02T11:11:05;6.57;;;1.40;;
75261;SDS011;63859;51.064;4.580;2024-03-02T11:13:35;7.47;;;1.67;;
75261;SDS011;63859;51.064;4.580;2024-03-02T11:16:06;10.20;;;2.03;;
75261;SDS011;63859;51.064;4.580;2024-03-02T11:18:40;10.82;;;1.98;;
75261;SDS011;63859;51.064;4.580;2024-03-02T11:21:07;9.63;;;1.58;;
75261;SDS011;63859;51.064;4.580;2024-03-02T11:23:33;6.20;;;1.43;;
75261;SDS011;63859;51.064;4.580;2024-03-02T11:26:18;3.50;;;1.70;;
75261;SDS011;63859;51.064;4.580;2024-03-02T11:28:44;4.55;;;1.48;;
75261;SDS011;63859;51.064;4.580;2024-03-02T11:31:10;4.90;;;1.60;;
75261;SDS011;63859;51.064;4.580;2024-03-02T11:33:36;5.90;;;1.60;;
75261;SDS011;63859;51.064;4.580;2024-03-02T11:36:02;7.72;;;1.65;;
75261;SDS011;63859;51.064;4.580;2024-03-02T11:38:29;4.75;;;1.35;;
75261;SDS011;63859;51.064;4.580;2024-03-02T11:40:56;6.07;;;2.00;;
75261;SDS011;63859;51.064;4.580;2024-03-02T11:43:22;5.95;;;1.63;;
75261;SDS011;63859;51.064;4.580;2024-03-02T11:45:48;10.02;;;1.67;;
75261;SDS011;63859;51.064;4.580;2024-03-02T11:48:23;7.45;;;1.70;;
75261;SDS011;63859;51.064;4.580;2024-03-02T11:50:50;5.30;;;1.88;;
75261;SDS011;63859;51.064;4.580;2024-03-02T11:53:16;5.85;;;1.40;;
75261;SDS011;63859;51.064;4.580;2024-03-02T11:55:43;4.88;;;1.33;;
75261;SDS011;63859;51.064;4.580;2024-03-02T11:58:11;5.63;;;1.63;;
75261;SDS011;63859;51.064;4.580;2024-03-02T12:00:38;4.18;;;1.60;;
75261;SDS011;63859;51.064;4.580;2024-03-02T12:03:04;5.05;;;1.48;;
75261;SDS011;63859;51.064;4.580;2024-03-02T12:05:34;12.93;;;1.80;;
75261;SDS011;63859;51.064;4.580;2024-03-02T12:08:09;4.80;;;1.33;;
75261;SDS011;63859;51.064;4.580;2024-03-02T12:10:37;6.10;;;1.63;;
75261;SDS011;63859;51.064;4.580;2024-03-02T12:13:04;4.82;;;1.58;;
75261;SDS011;63859;51.064;4.580;2024-03-02T12:15:32;6.22;;;1.70;;
75261;SDS011;63859;51.064;4.580;2024-03-02T12:18:00;8.70;;;1.80;;
75261;SDS011;63859;51.064;4.580;2024-03-02T12:20:28;5.70;;;2.13;;
75261;SDS011;63859;51.064;4.580;2024-03-02T12:22:55;6.28;;;2.38;;
75261;SDS011;63859;51.064;4.580;2024-03-02T12:25:22;6.05;;;1.50;;
75261;SDS011;63859;51.064;4.580;2024-03-02T12:27:49;4.30;;;1.58;;
75261;SDS011;63859;51.064;4.580;2024-03-02T12:30:17;5.75;;;1.42;;
75261;SDS011;63859;51.064;4.580;2024-03-02T12:32:46;3.75;;;1.40;;
75261;SDS011;63859;51.064;4.580;2024-03-02T12:35:13;10.73;;;1.65;;
75261;SDS011;63859;51.064;4.580;2024-03-02T12:37:43;3.97;;;1.65;;
75261;SDS011;63859;51.064;4.580;2024-03-02T12:40:12;8.15;;;1.45;;
75261;SDS011;63859;51.064;4.580;2024-03-02T12:42:39;7.40;;;1.52;;
75261;SDS011;63859;51.064;4.580;2024-03-02T12:45:08;4.30;;;1.70;;
75261;SDS011;63859;51.064;4.580;2024-03-02T12:47:34;4.88;;;1.45;;
75261;SDS011;63859;51.064;4.580;2024-03-02T12:50:00;4.95;;;1.67;;
75261;SDS011;63859;51.064;4.580;2024-03-02T12:52:27;4.32;;;1.42;;
75261;SDS011;63859;51.064;4.580;2024-03-02T12:54:53;5.72;;;1.63;;
75261;SDS011;63859;51.064;4.580;2024-03-02T12:57:24;4.70;;;1.63;;
75261;SDS011;63859;51.064;4.580;2024-03-02T12:59:52;8.80;;;1.80;;
75261;SDS011;63859;51.064;4.580;2024-03-02T13:02:18;9.98;;;1.77;;
75261;SDS011;63859;51.064;4.580;2024-03-02T13:04:43;3.80;;;1.65;;
75261;SDS011;63859;51.064;4.580;2024-03-02T13:07:10;4.85;;;1.52;;
75261;SDS011;63859;51.064;4.580;2024-03-02T13:09:38;7.93;;;1.67;;
75261;SDS011;63859;51.064;4.580;2024-03-02T13:12:04;6.25;;;1.75;;
75261;SDS011;63859;51.064;4.580;2024-03-02T13:14:33;4.85;;;1.58;;
75261;SDS011;63859;51.064;4.580;2024-03-02T13:17:01;6.55;;;1.70;;
75261;SDS011;63859;51.064;4.580;2024-03-02T13:19:29;6.00;;;1.40;;
75261;SDS011;63859;51.064;4.580;2024-03-02T13:21:56;7.95;;;1.70;;
75261;SDS011;63859;51.064;4.580;2024-03-02T13:24:22;5.68;;;1.30;;
75261;SDS011;63859;51.064;4.580;2024-03-02T13:26:50;8.65;;;1.33;;
75261;SDS011;63859;51.064;4.580;2024-03-02T13:29:20;4.65;;;1.25;;
75261;SDS011;63859;51.064;4.580;2024-03-02T13:31:46;6.38;;;1.30;;
75261;SDS011;63859;51.064;4.580;2024-03-02T13:34:12;6.22;;;1.85;;
75261;SDS011;63859;51.064;4.580;2024-03-02T13:36:38;6.88;;;1.48;;
75261;SDS011;63859;51.064;4.580;2024-03-02T13:39:03;6.30;;;1.40;;
75261;SDS011;63859;51.064;4.580;2024-03-02T13:41:36;2.30;;;1.30;;
75261;SDS011;63859;51.064;4.580;2024-03-02T13:44:02;7.45;;;1.48;;
75261;SDS011;63859;51.064;4.580;2024-03-02T13:46:28;4.38;;;1.70;;
75261;SDS011;63859;51.064;4.580;2024-03-02T13:48:54;2.63;;;1.52;;
75261;SDS011;63859;51.064;4.580;2024-03-02T13:51:20;26.40;;;2.50;;
75261;SDS011;63859;51.064;4.580;2024-03-02T13:53:46;7.63;;;1.70;;
75261;SDS011;63859;51.064;4.580;2024-03-02T13:56:11;2.42;;;1.35;;
75261;SDS011;63859;51.064;4.580;2024-03-02T13:58:37;3.67;;;1.58;;
75261;SDS011;63859;51.064;4.580;2024-03-02T14:01:03;7.10;;;1.38;;
75261;SDS011;63859;51.064;4.580;2024-03-02T14:03:30;5.68;;;1.77;;
75261;SDS011;63859;51.064;4.580;2024-03-02T14:05:56;2.90;;;1.25;;
75261;SDS011;63859;51.064;4.580;2024-03-02T14:08:22;6.63;;;1.35;;
75261;SDS011;63859;51.064;4.580;2024-03-02T14:10:48;3.63;;;1.50;;
75261;SDS011;63859;51.064;4.580;2024-03-02T14:13:14;6.40;;;1.58;;
75261;SDS011;63859;51.064;4.580;2024-03-02T14:15:40;8.02;;;1.63;;
75261;SDS011;63859;51.064;4.580;2024-03-02T14:18:07;2.85;;;1.40;;
75261;SDS011;63859;51.064;4.580;2024-03-02T14:20:36;3.45;;;1.30;;
75261;SDS011;63859;51.064;4.580;2024-03-02T14:23:02;4.60;;;1.30;;
75261;SDS011;63859;51.064;4.580;2024-03-02T14:25:29;2.33;;;1.20;;
75261;SDS011;63859;51.064;4.580;2024-03-02T14:27:58;3.72;;;1.10;;
75261;SDS011;63859;51.064;4.580;2024-03-02T14:30:24;7.47;;;1.35;;
75261;SDS011;63859;51.064;4.580;2024-03-02T14:32:49;6.38;;;1.27;;
75261;SDS011;63859;51.064;4.580;2024-03-02T14:35:16;2.60;;;0.95;;
75261;SDS011;63859;51.064;4.580;2024-03-02T14:37:41;3.80;;;1.40;;
75261;SDS011;63859;51.064;4.580;2024-03-02T14:40:07;4.53;;;1.02;;
75261;SDS011;63859;51.064;4.580;2024-03-02T14:42:34;4.60;;;1.10;;
75261;SDS011;63859;51.064;4.580;2024-03-02T14:45:00;4.60;;;1.10;;
75261;SDS011;63859;51.064;4.580;2024-03-02T14:47:29;2.88;;;1.13;;
75261;SDS011;63859;51.064;4.580;2024-03-02T14:49:58;2.45;;;1.00;;
75261;SDS011;63859;51.064;4.580;2024-03-02T14:52:24;1.77;;;1.20;;